sensor_id;sensor_type;location;lat;lon;timestamp;P1;durP1;ratioP1;P2;durP2;ratioP2
12267;SDS011;6196;48.398;11.736;2023-04-15T00:01:34;7.23;;;6.63;;
12267;SDS011;6196;48.398;11.736;2023-04-15T00:04:08;7.30;;;6.60;;
12267;SDS011;6196;48.398;11.736;2023-04-15T00:06:36;8.03;;;6.67;;
12267;SDS011;6196;48.398;11.736;2023-04-15T00:09:04;6.87;;;6.17;;
12267;SDS011;6196;48.398;11.736;2023-04-15T00:11:31;7.10;;;6.40;;
12267;SDS011;6196;48.398;11.736;2023-04-15T00:13:58;7.10;;;6.47;;
12267;SDS011;6196;48.398;11.736;2023-04-15T00:16:25;7.40;;;6.43;;
12267;SDS011;6196;48.398;11.736;2023-04-15T00:18:53;7.80;;;6.67;;
12267;SDS011;6196;48.398;11.736;2023-04-15T00:21:20;8.43;;;6.83;;
12267;SDS011;6196;48.398;11.736;2023-04-15T00:23:47;8.40;;;7.50;;
12267;SDS011;6196;48.398;11.736;2023-04-15T00:26:17;8.23;;;6.87;;
12267;SDS011;6196;48.398;11.736;2023-04-15T00:28:45;7.53;;;6.73;;
12267;SDS011;6196;48.398;11.736;2023-04-15T00:31:12;8.43;;;6.93;;
12267;SDS011;6196;48.398;11.736;2023-04-15T00:33:39;9.13;;;6.63;;
12267;SDS011;6196;48.398;11.736;2023-04-15T00:36:06;6.93;;;6.00;;
12267;SDS011;6196;48.398;11.736;2023-04-15T00:38:33;7.70;;;6.60;;
12267;SDS011;6196;48.398;11.736;2023-04-15T00:41:01;6.93;;;6.23;;
12267;SDS011;6196;48.398;11.736;2023-04-15T00:43:29;6.67;;;6.07;;
12267;SDS011;6196;48.398;11.736;2023-04-15T00:45:55;8.17;;;6.80;;
12267;SDS011;6196;48.398;11.736;2023-04-15T00:48:24;6.70;;;6.10;;
12267;SDS011;6196;48.398;11.736;2023-04-15T00:50:53;8.20;;;6.50;;
12267;SDS011;6196;48.398;11.736;2023-04-15T00:53:19;6.97;;;6.23;;
12267;SDS011;6196;48.398;11.736;2023-04-15T00:55:46;8.13;;;6.90;;
12267;SDS011;6196;48.398;11.736;2023-04-15T00:58:13;7.70;;;6.83;;
12267;SDS011;6196;48.398;11.736;2023-04-15T01:00:41;7.00;;;6.30;;
12267;SDS011;6196;48.398;11.736;2023-04-15T01:03:08;8.17;;;6.73;;
12267;SDS011;6196;48.398;11.736;2023-04-15T01:05:37;7.10;;;6.40;;
12267;SDS011;6196;48.398;11.736;2023-04-15T01:08:04;6.87;;;6.27;;
12267;SDS011;6196;48.398;11.736;2023-04-15T01:10:32;7.37;;;6.63;;
12267;SDS011;6196;48.398;11.736;2023-04-15T01:12:58;7.27;;;6.40;;
12267;SDS011;6196;48.398;11.736;2023-04-15T01:15:25;8.50;;;7.47;;
12267;SDS011;6196;48.398;11.736;2023-04-15T01:17:52;9.30;;;7.20;;
12267;SDS011;6196;48.398;11.736;2023-04-15T01:20:19;7.27;;;6.57;;
12267;SDS011;6196;48.398;11.736;2023-04-15T01:22:47;7.50;;;6.70;;
12267;SDS011;6196;48.398;11.736;2023-04-15T01:25:17;7.83;;;6.20;;
12267;SDS011;6196;48.398;11.736;2023-04-15T01:27:45;7.87;;;6.87;;
12267;SDS011;6196;48.398;11.736;2023-04-15T01:30:12;9.10;;;6.53;;
12267;SDS011;6196;48.398;11.736;2023-04-15T01:32:39;7.17;;;6.47;;
12267;SDS011;6196;48.398;11.736;2023-04-15T01:35:06;7.33;;;6.53;;
12267;SDS011;6196;48.398;11.736;2023-04-15T01:37:34;7.00;;;6.33;;
12267;SDS011;6196;48.398;11.736;2023-04-15T01:40:01;6.70;;;6.00;;
12267;SDS011;6196;48.398;11.736;2023-04-15T01:42:29;7.40;;;6.70;;
12267;SDS011;6196;48.398;11.736;2023-04-15T01:44:56;7.70;;;6.93;;
12267;SDS011;6196;48.398;11.736;2023-04-15T01:47:23;7.40;;;6.27;;
12267;SDS011;6196;48.398;11.736;2023-04-15T01:49:50;6.80;;;6.10;;
12267;SDS011;6196;48.398;11.736;2023-04-15T01:52:17;7.67;;;6.87;;
12267;SDS011;6196;48.398;11.736;2023-04-15T01:54:43;7.13;;;6.33;;
12267;SDS011;6196;48.398;11.736;2023-04-15T01:57:10;7.60;;;6.80;;
12267;SDS011;6196;48.398;11.736;2023-04-15T01:59:37;7.13;;;5.90;;
12267;SDS011;6196;48.398;11.736;2023-04-15T02:02:04;7.50;;;6.80;;
12267;SDS011;6196;48.398;11.736;2023-04-15T02:04:31;7.87;;;6.47;;
12267;SDS011;6196;48.398;11.736;2023-04-15T02:06:59;7.67;;;6.70;;
12267;SDS011;6196;48.398;11.736;2023-04-15T02:09:26;7.30;;;6.60;;
12267;SDS011;6196;48.398;11.736;2023-04-15T02:11:53;7.43;;;6.60;;
12267;SDS011;6196;48.398;11.736;2023-04-15T02:14:20;8.20;;;7.30;;
12267;SDS011;6196;48.398;11.736;2023-04-15T02:16:47;7.83;;;7.03;;
12267;SDS011;6196;48.398;11.736;2023-04-15T02:19:14;7.83;;;6.73;;
12267;SDS011;6196;48.398;11.736;2023-04-15T02:21:41;8.43;;;7.53;;
12267;SDS011;6196;48.398;11.736;2023-04-15T02:24:08;9.53;;;7.70;;
12267;SDS011;6196;48.398;11.736;2023-04-15T02:26:34;7.37;;;6.63;;
12267;SDS011;6196;48.398;11.736;2023-04-15T02:29:01;7.70;;;6.87;;
12267;SDS011;6196;48.398;11.736;2023-04-15T02:31:28;10.40;;;7.47;;
12267;SDS011;6196;48.398;11.736;2023-04-15T02:33:55;8.17;;;7.37;;
12267;SDS011;6196;48.398;11.736;2023-04-15T02:36:22;9.73;;;7.67;;
12267;SDS011;6196;48.398;11.736;2023-04-15T02:38:49;9.33;;;7.63;;
12267;SDS011;6196;48.398;11.736;2023-04-15T02:41:16;8.37;;;7.47;;
12267;SDS011;6196;48.398;11.736;2023-04-15T02:43:43;8.43;;;7.60;;
12267;SDS011;6196;48.398;11.736;2023-04-15T02:46:10;7.87;;;7.07;;
12267;SDS011;6196;48.398;11.736;2023-04-15T02:48:40;9.17;;;8.27;;
12267;SDS011;6196;48.398;11.736;2023-04-15T02:51:17;8.27;;;7.47;;
12267;SDS011;6196;48.398;11.736;2023-04-15T02:53:46;8.27;;;7.10;;
12267;SDS011;6196;48.398;11.736;2023-04-15T02:56:14;8.83;;;7.33;;
12267;SDS011;6196;48.398;11.736;2023-04-15T02:58:42;8.73;;;7.83;;
12267;SDS011;6196;48.398;11.736;2023-04-15T03:01:10;8.80;;;7.90;;
12267;SDS011;6196;48.398;11.736;2023-04-15T03:03:37;8.60;;;7.67;;
12267;SDS011;6196;48.398;11.736;2023-04-15T03:06:04;9.40;;;8.50;;
12267;SDS011;6196;48.398;11.736;2023-04-15T03:08:32;8.33;;;7.53;;
12267;SDS011;6196;48.398;11.736;2023-04-15T03:10:58;8.63;;;7.80;;
12267;SDS011;6196;48.398;11.736;2023-04-15T03:13:27;11.27;;;8.33;;
12267;SDS011;6196;48.398;11.736;2023-04-15T03:15:54;9.90;;;7.87;;
12267;SDS011;6196;48.398;11.736;2023-04-15T03:18:21;9.57;;;8.43;;
12267;SDS011;6196;48.398;11.736;2023-04-15T03:20:48;11.57;;;8.40;;
12267;SDS011;6196;48.398;11.736;2023-04-15T03:23:15;10.07;;;8.33;;
12267;SDS011;6196;48.398;11.736;2023-04-15T03:25:43;9.40;;;8.03;;
12267;SDS011;6196;48.398;11.736;2023-04-15T03:28:10;9.97;;;8.63;;
12267;SDS011;6196;48.398;11.736;2023-04-15T03:30:37;10.27;;;9.17;;
12267;SDS011;6196;48.398;11.736;2023-04-15T03:33:04;10.90;;;9.63;;
12267;SDS011;6196;48.398;11.736;2023-04-15T03:35:32;10.10;;;9.10;;
12267;SDS011;6196;48.398;11.736;2023-04-15T03:37:59;10.77;;;9.60;;
12267;SDS011;6196;48.398;11.736;2023-04-15T03:40:26;10.50;;;9.00;;
12267;SDS011;6196;48.398;11.736;2023-04-15T03:42:53;10.30;;;9.13;;
12267;SDS011;6196;48.398;11.736;2023-04-15T03:45:19;10.40;;;9.13;;
12267;SDS011;6196;48.398;11.736;2023-04-15T03:47:46;12.07;;;9.93;;
12267;SDS011;6196;48.398;11.736;2023-04-15T03:50:14;12.50;;;9.83;;
12267;SDS011;6196;48.398;11.736;2023-04-15T03:52:41;11.73;;;9.90;;
12267;SDS011;6196;48.398;11.736;2023-04-15T03:55:09;10.37;;;9.33;;
12267;SDS011;6196;48.398;11.736;2023-04-15T03:57:36;13.57;;;9.57;;
12267;SDS011;6196;48.398;11.736;2023-04-15T04:00:04;11.37;;;9.53;;
12267;SDS011;6196;48.398;11.736;2023-04-15T04:02:33;11.50;;;9.40;;
12267;SDS011;6196;48.398;11.736;2023-04-15T04:05:00;11.87;;;9.13;;
12267;SDS011;6196;48.398;11.736;2023-04-15T04:07:27;11.37;;;10.17;;
12267;SDS011;6196;48.398;11.736;2023-04-15T04:09:55;11.60;;;10.20;;
12267;SDS011;6196;48.398;11.736;2023-04-15T04:12:23;11.57;;;10.37;;
12267;SDS011;6196;48.398;11.736;2023-04-15T04:14:49;11.40;;;9.30;;
12267;SDS011;6196;48.398;11.736;2023-04-15T04:17:17;10.70;;;9.57;;
12267;SDS011;6196;48.398;11.736;2023-04-15T04:19:44;11.43;;;9.87;;
12267;SDS011;6196;48.398;11.736;2023-04-15T04:22:10;11.50;;;10.00;;
12267;SDS011;6196;48.398;11.736;2023-04-15T04:24:37;11.17;;;9.63;;
12267;SDS011;6196;48.398;11.736;2023-04-15T04:27:04;12.03;;;9.70;;
12267;SDS011;6196;48.398;11.736;2023-04-15T04:29:31;13.50;;;9.77;;
12267;SDS011;6196;48.398;11.736;2023-04-15T04:31:58;11.63;;;9.30;;
12267;SDS011;6196;48.398;11.736;2023-04-15T04:34:25;12.53;;;9.77;;
12267;SDS011;6196;48.398;11.736;2023-04-15T04:36:52;11.80;;;9.17;;
12267;SDS011;6196;48.398;11.736;2023-04-15T04:39:19;11.33;;;9.57;;
12267;SDS011;6196;48.398;11.736;2023-04-15T04:41:45;11.53;;;9.80;;
12267;SDS011;6196;48.398;11.736;2023-04-15T04:44:12;10.53;;;9.13;;
12267;SDS011;6196;48.398;11.736;2023-04-15T04:46:39;14.73;;;9.50;;
12267;SDS011;6196;48.398;11.736;2023-04-15T04:49:06;10.90;;;9.40;;
12267;SDS011;6196;48.398;11.736;2023-04-15T04:51:33;11.23;;;10.13;;
12267;SDS011;6196;48.398;11.736;2023-04-15T04:54:00;12.57;;;10.03;;
12267;SDS011;6196;48.398;11.736;2023-04-15T04:56:29;11.07;;;9.90;;
12267;SDS011;6196;48.398;11.736;2023-04-15T04:58:55;10.30;;;9.20;;
12267;SDS011;6196;48.398;11.736;2023-04-15T05:01:22;13.03;;;10.00;;
12267;SDS011;6196;48.398;11.736;2023-04-15T05:03:49;11.37;;;9.83;;
12267;SDS011;6196;48.398;11.736;2023-04-15T05:06:17;11.03;;;9.83;;
12267;SDS011;6196;48.398;11.736;2023-04-15T05:08:43;10.57;;;9.57;;
12267;SDS011;6196;48.398;11.736;2023-04-15T05:11:12;11.33;;;9.67;;
12267;SDS011;6196;48.398;11.736;2023-04-15T05:13:39;10.27;;;9.10;;
12267;SDS011;6196;48.398;11.736;2023-04-15T05:16:05;13.10;;;10.00;;
12267;SDS011;6196;48.398;11.736;2023-04-15T05:18:33;13.03;;;9.07;;
12267;SDS011;6196;48.398;11.736;2023-04-15T05:21:00;11.27;;;10.07;;
12267;SDS011;6196;48.398;11.736;2023-04-15T05:23:27;10.27;;;9.27;;
12267;SDS011;6196;48.398;11.736;2023-04-15T05:25:54;10.80;;;9.70;;
12267;SDS011;6196;48.398;11.736;2023-04-15T05:28:21;10.37;;;8.77;;
12267;SDS011;6196;48.398;11.736;2023-04-15T05:30:48;10.87;;;9.50;;
12267;SDS011;6196;48.398;11.736;2023-04-15T05:33:15;10.17;;;8.87;;
12267;SDS011;6196;48.398;11.736;2023-04-15T05:35:42;10.00;;;9.00;;
12267;SDS011;6196;48.398;11.736;2023-04-15T05:38:09;10.70;;;9.37;;
12267;SDS011;6196;48.398;11.736;2023-04-15T05:40:36;11.47;;;9.23;;
12267;SDS011;6196;48.398;11.736;2023-04-15T05:43:03;9.80;;;8.80;;
12267;SDS011;6196;48.398;11.736;2023-04-15T05:45:30;9.80;;;8.13;;
12267;SDS011;6196;48.398;11.736;2023-04-15T05:47:57;9.40;;;8.50;;
12267;SDS011;6196;48.398;11.736;2023-04-15T05:50:24;9.73;;;8.43;;
12267;SDS011;6196;48.398;11.736;2023-04-15T05:52:51;9.00;;;8.10;;
12267;SDS011;6196;48.398;11.736;2023-04-15T05:55:18;9.60;;;8.60;;
12267;SDS011;6196;48.398;11.736;2023-04-15T05:57:45;8.50;;;7.47;;
12267;SDS011;6196;48.398;11.736;2023-04-15T06:00:12;11.33;;;8.57;;
12267;SDS011;6196;48.398;11.736;2023-04-15T06:02:40;10.73;;;8.60;;
12267;SDS011;6196;48.398;11.736;2023-04-15T06:05:07;8.43;;;7.63;;
12267;SDS011;6196;48.398;11.736;2023-04-15T06:07:36;9.07;;;7.63;;
12267;SDS011;6196;48.398;11.736;2023-04-15T06:10:04;10.10;;;8.63;;
12267;SDS011;6196;48.398;11.736;2023-04-15T06:12:33;9.37;;;8.00;;
12267;SDS011;6196;48.398;11.736;2023-04-15T06:15:00;9.97;;;8.10;;
12267;SDS011;6196;48.398;11.736;2023-04-15T06:17:27;9.40;;;7.40;;
12267;SDS011;6196;48.398;11.736;2023-04-15T06:19:54;9.40;;;7.50;;
12267;SDS011;6196;48.398;11.736;2023-04-15T06:22:22;8.20;;;7.30;;
12267;SDS011;6196;48.398;11.736;2023-04-15T06:24:49;8.53;;;7.07;;
12267;SDS011;6196;48.398;11.736;2023-04-15T06:27:16;8.20;;;7.40;;
12267;SDS011;6196;48.398;11.736;2023-04-15T06:29:43;8.00;;;7.20;;
12267;SDS011;6196;48.398;11.736;2023-04-15T06:32:10;8.13;;;7.33;;
12267;SDS011;6196;48.398;11.736;2023-04-15T06:34:38;8.20;;;7.37;;
12267;SDS011;6196;48.398;11.736;2023-04-15T06:37:05;10.57;;;7.50;;
12267;SDS011;6196;48.398;11.736;2023-04-15T06:39:32;9.17;;;7.20;;
12267;SDS011;6196;48.398;11.736;2023-04-15T06:41:59;9.00;;;7.43;;
12267;SDS011;6196;48.398;11.736;2023-04-15T06:44:26;7.40;;;6.60;;
12267;SDS011;6196;48.398;11.736;2023-04-15T06:46:54;8.90;;;7.27;;
12267;SDS011;6196;48.398;11.736;2023-04-15T06:49:21;7.37;;;6.67;;
12267;SDS011;6196;48.398;11.736;2023-04-15T06:51:48;6.70;;;6.00;;
12267;SDS011;6196;48.398;11.736;2023-04-15T06:54:16;7.20;;;6.40;;
12267;SDS011;6196;48.398;11.736;2023-04-15T06:56:43;6.93;;;6.23;;
12267;SDS011;6196;48.398;11.736;2023-04-15T06:59:10;7.43;;;6.73;;
12267;SDS011;6196;48.398;11.736;2023-04-15T07:01:38;7.57;;;6.77;;
12267;SDS011;6196;48.398;11.736;2023-04-15T07:04:07;7.60;;;6.90;;
12267;SDS011;6196;48.398;11.736;2023-04-15T07:06:34;9.33;;;6.60;;
12267;SDS011;6196;48.398;11.736;2023-04-15T07:09:02;7.00;;;6.30;;
12267;SDS011;6196;48.398;11.736;2023-04-15T07:11:30;7.23;;;6.00;;
12267;SDS011;6196;48.398;11.736;2023-04-15T07:13:57;6.37;;;5.77;;
12267;SDS011;6196;48.398;11.736;2023-04-15T07:16:24;9.10;;;7.00;;
12267;SDS011;6196;48.398;11.736;2023-04-15T07:18:54;7.57;;;5.73;;
12267;SDS011;6196;48.398;11.736;2023-04-15T07:21:23;7.10;;;6.10;;
12267;SDS011;6196;48.398;11.736;2023-04-15T07:23:50;7.67;;;6.10;;
12267;SDS011;6196;48.398;11.736;2023-04-15T07:26:17;6.73;;;5.67;;
12267;SDS011;6196;48.398;11.736;2023-04-15T07:28:44;6.97;;;5.40;;
12267;SDS011;6196;48.398;11.736;2023-04-15T07:31:12;7.70;;;6.20;;
12267;SDS011;6196;48.398;11.736;2023-04-15T07:33:40;6.73;;;6.00;;
12267;SDS011;6196;48.398;11.736;2023-04-15T07:36:07;7.87;;;6.30;;
12267;SDS011;6196;48.398;11.736;2023-04-15T07:38:34;8.63;;;6.20;;
12267;SDS011;6196;48.398;11.736;2023-04-15T07:41:01;7.00;;;6.30;;
12267;SDS011;6196;48.398;11.736;2023-04-15T07:43:28;6.87;;;5.90;;
12267;SDS011;6196;48.398;11.736;2023-04-15T07:45:55;7.53;;;6.00;;
12267;SDS011;6196;48.398;11.736;2023-04-15T07:48:22;7.93;;;6.20;;
12267;SDS011;6196;48.398;11.736;2023-04-15T07:50:49;6.80;;;6.17;;
12267;SDS011;6196;48.398;11.736;2023-04-15T07:53:15;6.67;;;6.07;;
12267;SDS011;6196;48.398;11.736;2023-04-15T07:55:42;6.20;;;5.60;;
12267;SDS011;6196;48.398;11.736;2023-04-15T07:58:09;6.77;;;5.47;;
12267;SDS011;6196;48.398;11.736;2023-04-15T08:00:36;7.97;;;5.87;;
12267;SDS011;6196;48.398;11.736;2023-04-15T08:03:03;5.87;;;5.23;;
12267;SDS011;6196;48.398;11.736;2023-04-15T08:05:31;5.90;;;5.30;;
12267;SDS011;6196;48.398;11.736;2023-04-15T08:07:58;6.53;;;5.90;;
12267;SDS011;6196;48.398;11.736;2023-04-15T08:10:25;6.17;;;5.57;;
12267;SDS011;6196;48.398;11.736;2023-04-15T08:12:53;6.03;;;5.43;;
12267;SDS011;6196;48.398;11.736;2023-04-15T08:15:20;6.27;;;5.63;;
12267;SDS011;6196;48.398;11.736;2023-04-15T08:17:47;6.03;;;5.43;;
12267;SDS011;6196;48.398;11.736;2023-04-15T08:20:14;6.23;;;5.57;;
12267;SDS011;6196;48.398;11.736;2023-04-15T08:22:41;6.73;;;5.70;;
12267;SDS011;6196;48.398;11.736;2023-04-15T08:25:08;5.80;;;5.30;;
12267;SDS011;6196;48.398;11.736;2023-04-15T08:27:35;5.97;;;5.20;;
12267;SDS011;6196;48.398;11.736;2023-04-15T08:30:02;6.00;;;5.43;;
12267;SDS011;6196;48.398;11.736;2023-04-15T08:32:30;5.20;;;4.70;;
12267;SDS011;6196;48.398;11.736;2023-04-15T08:34:57;6.03;;;5.43;;
12267;SDS011;6196;48.398;11.736;2023-04-15T08:37:24;6.33;;;5.60;;
12267;SDS011;6196;48.398;11.736;2023-04-15T08:39:52;5.70;;;5.13;;
12267;SDS011;6196;48.398;11.736;2023-04-15T08:42:22;6.93;;;5.47;;
12267;SDS011;6196;48.398;11.736;2023-04-15T08:45:03;6.67;;;5.23;;
12267;SDS011;6196;48.398;11.736;2023-04-15T08:47:30;9.20;;;5.80;;
12267;SDS011;6196;48.398;11.736;2023-04-15T08:50:00;6.13;;;5.33;;
12267;SDS011;6196;48.398;11.736;2023-04-15T08:52:29;6.07;;;5.47;;
12267;SDS011;6196;48.398;11.736;2023-04-15T08:54:57;6.93;;;5.17;;
12267;SDS011;6196;48.398;11.736;2023-04-15T08:57:27;6.03;;;5.33;;
12267;SDS011;6196;48.398;11.736;2023-04-15T08:59:55;5.30;;;4.73;;
12267;SDS011;6196;48.398;11.736;2023-04-15T09:02:23;5.90;;;5.07;;
12267;SDS011;6196;48.398;11.736;2023-04-15T09:04:52;5.20;;;4.70;;
12267;SDS011;6196;48.398;11.736;2023-04-15T09:07:19;5.20;;;4.70;;
12267;SDS011;6196;48.398;11.736;2023-04-15T09:09:47;6.30;;;4.97;;
12267;SDS011;6196;48.398;11.736;2023-04-15T09:12:14;6.37;;;4.87;;
12267;SDS011;6196;48.398;11.736;2023-04-15T09:14:44;5.27;;;4.70;;
12267;SDS011;6196;48.398;11.736;2023-04-15T09:17:12;5.00;;;4.40;;
12267;SDS011;6196;48.398;11.736;2023-04-15T09:19:44;6.73;;;5.20;;
12267;SDS011;6196;48.398;11.736;2023-04-15T09:22:11;5.07;;;4.60;;
12267;SDS011;6196;48.398;11.736;2023-04-15T09:24:38;6.30;;;5.50;;
12267;SDS011;6196;48.398;11.736;2023-04-15T09:27:07;5.03;;;4.63;;
12267;SDS011;6196;48.398;11.736;2023-04-15T09:29:34;7.03;;;4.97;;
12267;SDS011;6196;48.398;11.736;2023-04-15T09:32:08;5.37;;;4.87;;
12267;SDS011;6196;48.398;11.736;2023-04-15T09:34:40;5.27;;;4.77;;
12267;SDS011;6196;48.398;11.736;2023-04-15T09:37:07;6.80;;;5.10;;
12267;SDS011;6196;48.398;11.736;2023-04-15T09:39:48;6.60;;;5.17;;
12267;SDS011;6196;48.398;11.736;2023-04-15T09:42:18;6.60;;;5.93;;
12267;SDS011;6196;48.398;11.736;2023-04-15T09:44:52;5.60;;;4.97;;
12267;SDS011;6196;48.398;11.736;2023-04-15T09:47:28;7.43;;;5.33;;
12267;SDS011;6196;48.398;11.736;2023-04-15T09:49:58;6.07;;;5.07;;
12267;SDS011;6196;48.398;11.736;2023-04-15T09:52:26;5.73;;;5.23;;
12267;SDS011;6196;48.398;11.736;2023-04-15T09:54:55;5.53;;;5.03;;
12267;SDS011;6196;48.398;11.736;2023-04-15T09:57:24;6.83;;;5.10;;
12267;SDS011;6196;48.398;11.736;2023-04-15T09:59:59;7.53;;;5.43;;
12267;SDS011;6196;48.398;11.736;2023-04-15T10:02:26;6.07;;;5.47;;
12267;SDS011;6196;48.398;11.736;2023-04-15T10:04:55;5.90;;;5.30;;
12267;SDS011;6196;48.398;11.736;2023-04-15T10:07:23;6.73;;;5.63;;
12267;SDS011;6196;48.398;11.736;2023-04-15T10:09:51;5.87;;;5.37;;
12267;SDS011;6196;48.398;11.736;2023-04-15T10:12:18;6.67;;;5.57;;
12267;SDS011;6196;48.398;11.736;2023-04-15T10:14:47;6.13;;;5.27;;
12267;SDS011;6196;48.398;11.736;2023-04-15T10:17:22;6.33;;;5.53;;
12267;SDS011;6196;48.398;11.736;2023-04-15T10:19:52;6.90;;;6.03;;
12267;SDS011;6196;48.398;11.736;2023-04-15T10:22:21;5.90;;;5.30;;
12267;SDS011;6196;48.398;11.736;2023-04-15T10:24:49;7.13;;;5.53;;
12267;SDS011;6196;48.398;11.736;2023-04-15T10:27:17;6.33;;;5.13;;
12267;SDS011;6196;48.398;11.736;2023-04-15T10:29:45;7.90;;;6.03;;
12267;SDS011;6196;48.398;11.736;2023-04-15T10:32:16;5.47;;;4.90;;
12267;SDS011;6196;48.398;11.736;2023-04-15T10:34:46;6.23;;;5.00;;
12267;SDS011;6196;48.398;11.736;2023-04-15T10:37:21;6.03;;;5.00;;
12267;SDS011;6196;48.398;11.736;2023-04-15T10:39:59;6.27;;;5.03;;
12267;SDS011;6196;48.398;11.736;2023-04-15T10:42:32;4.90;;;4.43;;
12267;SDS011;6196;48.398;11.736;2023-04-15T10:45:00;7.30;;;4.90;;
12267;SDS011;6196;48.398;11.736;2023-04-15T10:47:27;5.70;;;4.70;;
12267;SDS011;6196;48.398;11.736;2023-04-15T10:49:58;5.53;;;5.03;;
12267;SDS011;6196;48.398;11.736;2023-04-15T10:52:27;6.47;;;4.90;;
12267;SDS011;6196;48.398;11.736;2023-04-15T10:55:13;5.87;;;4.73;;
12267;SDS011;6196;48.398;11.736;2023-04-15T10:57:46;5.33;;;4.13;;
12267;SDS011;6196;48.398;11.736;2023-04-15T11:00:19;5.40;;;4.67;;
12267;SDS011;6196;48.398;11.736;2023-04-15T11:05:22;6.97;;;6.23;;
12267;SDS011;6196;48.398;11.736;2023-04-15T11:08:14;6.77;;;5.13;;
12267;SDS011;6196;48.398;11.736;2023-04-15T11:15:44;6.83;;;6.20;;
12267;SDS011;6196;48.398;11.736;2023-04-15T11:18:22;6.00;;;5.40;;
12267;SDS011;6196;48.398;11.736;2023-04-15T11:20:53;5.87;;;4.80;;
12267;SDS011;6196;48.398;11.736;2023-04-15T11:26:14;5.10;;;4.53;;
12267;SDS011;6196;48.398;11.736;2023-04-15T11:28:42;5.13;;;4.63;;
12267;SDS011;6196;48.398;11.736;2023-04-15T11:31:14;5.50;;;4.67;;
12267;SDS011;6196;48.398;11.736;2023-04-15T11:33:52;6.30;;;4.70;;
12267;SDS011;6196;48.398;11.736;2023-04-15T11:36:24;4.93;;;4.40;;
12267;SDS011;6196;48.398;11.736;2023-04-15T11:38:54;5.20;;;4.70;;
12267;SDS011;6196;48.398;11.736;2023-04-15T11:41:23;5.57;;;4.50;;
12267;SDS011;6196;48.398;11.736;2023-04-15T11:43:50;6.80;;;4.80;;
12267;SDS011;6196;48.398;11.736;2023-04-15T11:46:17;5.53;;;4.80;;
12267;SDS011;6196;48.398;11.736;2023-04-15T11:48:46;6.43;;;4.90;;
12267;SDS011;6196;48.398;11.736;2023-04-15T11:51:13;5.07;;;4.50;;
12267;SDS011;6196;48.398;11.736;2023-04-15T11:53:41;5.60;;;4.40;;
12267;SDS011;6196;48.398;11.736;2023-04-15T11:56:17;6.20;;;5.17;;
12267;SDS011;6196;48.398;11.736;2023-04-15T11:58:51;7.03;;;5.40;;
12267;SDS011;6196;48.398;11.736;2023-04-15T12:03:58;6.17;;;5.03;;
12267;SDS011;6196;48.398;11.736;2023-04-15T12:06:30;6.03;;;5.00;;
12267;SDS011;6196;48.398;11.736;2023-04-15T12:09:06;5.73;;;5.10;;
12267;SDS011;6196;48.398;11.736;2023-04-15T12:11:42;5.43;;;4.70;;
12267;SDS011;6196;48.398;11.736;2023-04-15T12:16:56;6.30;;;4.70;;
12267;SDS011;6196;48.398;11.736;2023-04-15T12:19:29;5.57;;;4.73;;
12267;SDS011;6196;48.398;11.736;2023-04-15T12:22:13;5.47;;;4.70;;
12267;SDS011;6196;48.398;11.736;2023-04-15T12:24:42;6.67;;;5.10;;
12267;SDS011;6196;48.398;11.736;2023-04-15T12:27:13;6.20;;;4.90;;
12267;SDS011;6196;48.398;11.736;2023-04-15T12:29:42;5.13;;;4.63;;
12267;SDS011;6196;48.398;11.736;2023-04-15T12:34:43;5.73;;;5.23;;
12267;SDS011;6196;48.398;11.736;2023-04-15T12:37:15;12.97;;;5.20;;
12267;SDS011;6196;48.398;11.736;2023-04-15T12:39:43;5.57;;;4.80;;
12267;SDS011;6196;48.398;11.736;2023-04-15T12:42:14;5.90;;;4.90;;
12267;SDS011;6196;48.398;11.736;2023-04-15T12:44:43;6.53;;;5.53;;
12267;SDS011;6196;48.398;11.736;2023-04-15T12:47:10;7.73;;;5.20;;
12267;SDS011;6196;48.398;11.736;2023-04-15T12:49:37;5.53;;;5.00;;
12267;SDS011;6196;48.398;11.736;2023-04-15T12:52:05;5.77;;;4.63;;
12267;SDS011;6196;48.398;11.736;2023-04-15T12:54:32;6.60;;;4.77;;
12267;SDS011;6196;48.398;11.736;2023-04-15T12:56:59;6.03;;;4.70;;
12267;SDS011;6196;48.398;11.736;2023-04-15T12:59:31;9.10;;;5.33;;
12267;SDS011;6196;48.398;11.736;2023-04-15T13:01:58;5.90;;;4.50;;
12267;SDS011;6196;48.398;11.736;2023-04-15T13:04:26;6.33;;;4.10;;
12267;SDS011;6196;48.398;11.736;2023-04-15T13:06:56;6.37;;;4.23;;
12267;SDS011;6196;48.398;11.736;2023-04-15T13:09:23;5.97;;;4.53;;
12267;SDS011;6196;48.398;11.736;2023-04-15T13:11:50;6.93;;;4.23;;
12267;SDS011;6196;48.398;11.736;2023-04-15T13:14:18;6.17;;;4.60;;
12267;SDS011;6196;48.398;11.736;2023-04-15T13:16:44;14.27;;;5.03;;
12267;SDS011;6196;48.398;11.736;2023-04-15T13:19:12;7.13;;;4.33;;
12267;SDS011;6196;48.398;11.736;2023-04-15T13:21:39;6.23;;;4.60;;
12267;SDS011;6196;48.398;11.736;2023-04-15T13:24:06;3.90;;;3.50;;
12267;SDS011;6196;48.398;11.736;2023-04-15T13:26:34;5.73;;;3.43;;
12267;SDS011;6196;48.398;11.736;2023-04-15T13:29:01;5.23;;;3.20;;
12267;SDS011;6196;48.398;11.736;2023-04-15T13:31:28;4.53;;;3.13;;
12267;SDS011;6196;48.398;11.736;2023-04-15T13:33:55;4.00;;;3.00;;
12267;SDS011;6196;48.398;11.736;2023-04-15T13:36:23;3.93;;;3.40;;
12267;SDS011;6196;48.398;11.736;2023-04-15T13:38:50;3.17;;;2.87;;
12267;SDS011;6196;48.398;11.736;2023-04-15T13:41:17;3.10;;;2.80;;
12267;SDS011;6196;48.398;11.736;2023-04-15T13:43:45;6.17;;;2.97;;
12267;SDS011;6196;48.398;11.736;2023-04-15T13:46:12;3.93;;;2.93;;
12267;SDS011;6196;48.398;11.736;2023-04-15T13:48:39;3.87;;;3.17;;
12267;SDS011;6196;48.398;11.736;2023-04-15T13:51:07;6.97;;;3.17;;
12267;SDS011;6196;48.398;11.736;2023-04-15T13:53:33;2.90;;;2.60;;
12267;SDS011;6196;48.398;11.736;2023-04-15T13:56:07;3.03;;;2.73;;
12267;SDS011;6196;48.398;11.736;2023-04-15T13:58:35;3.43;;;3.13;;
12267;SDS011;6196;48.398;11.736;2023-04-15T14:01:03;4.77;;;3.40;;
12267;SDS011;6196;48.398;11.736;2023-04-15T14:03:33;3.57;;;3.27;;
12267;SDS011;6196;48.398;11.736;2023-04-15T14:06:02;3.40;;;3.10;;
12267;SDS011;6196;48.398;11.736;2023-04-15T14:08:30;4.33;;;3.50;;
12267;SDS011;6196;48.398;11.736;2023-04-15T14:10:56;3.37;;;3.07;;
12267;SDS011;6196;48.398;11.736;2023-04-15T14:13:23;4.00;;;3.60;;
12267;SDS011;6196;48.398;11.736;2023-04-15T14:15:51;4.77;;;3.20;;
12267;SDS011;6196;48.398;11.736;2023-04-15T14:18:19;3.70;;;3.03;;
12267;SDS011;6196;48.398;11.736;2023-04-15T14:20:46;3.30;;;3.00;;
12267;SDS011;6196;48.398;11.736;2023-04-15T14:23:12;3.40;;;3.10;;
12267;SDS011;6196;48.398;11.736;2023-04-15T14:25:39;3.93;;;3.53;;
12267;SDS011;6196;48.398;11.736;2023-04-15T14:28:06;3.83;;;3.10;;
12267;SDS011;6196;48.398;11.736;2023-04-15T14:30:33;3.70;;;3.30;;
12267;SDS011;6196;48.398;11.736;2023-04-15T14:33:00;3.60;;;2.93;;
12267;SDS011;6196;48.398;11.736;2023-04-15T14:35:27;3.80;;;3.40;;
12267;SDS011;6196;48.398;11.736;2023-04-15T14:37:54;4.10;;;3.40;;
12267;SDS011;6196;48.398;11.736;2023-04-15T14:40:22;4.77;;;3.50;;
12267;SDS011;6196;48.398;11.736;2023-04-15T14:42:50;4.33;;;3.23;;
12267;SDS011;6196;48.398;11.736;2023-04-15T14:45:16;16.93;;;9.13;;
12267;SDS011;6196;48.398;11.736;2023-04-15T14:47:43;5.27;;;4.20;;
12267;SDS011;6196;48.398;11.736;2023-04-15T14:50:10;4.47;;;3.63;;
12267;SDS011;6196;48.398;11.736;2023-04-15T14:52:37;6.20;;;5.57;;
12267;SDS011;6196;48.398;11.736;2023-04-15T14:55:08;4.43;;;3.77;;
12267;SDS011;6196;48.398;11.736;2023-04-15T14:57:39;4.53;;;3.70;;
12267;SDS011;6196;48.398;11.736;2023-04-15T15:00:08;5.03;;;3.97;;
12267;SDS011;6196;48.398;11.736;2023-04-15T15:02:39;3.87;;;3.57;;
12267;SDS011;6196;48.398;11.736;2023-04-15T15:05:08;4.67;;;4.17;;
12267;SDS011;6196;48.398;11.736;2023-04-15T15:07:37;5.97;;;4.67;;
12267;SDS011;6196;48.398;11.736;2023-04-15T15:10:05;6.13;;;4.87;;